createdAt,value
2022-10-29T00:02:17.518Z,20.46
2022-10-29T00:08:43.149Z,20.44
2022-10-29T00:15:17.699Z,20.41
2022-10-29T00:21:42.217Z,20.40
2022-10-29T00:27:39.933Z,20.38
2022-10-29T00:33:59.848Z,20.36
2022-10-29T00:40:16.016Z,20.33
2022-10-29T00:46:49.300Z,20.31
2022-10-29T01:06:41.015Z,20.25
2022-10-29T01:12:49.836Z,20.22
2022-10-29T01:19:03.862Z,20.21
2022-10-29T01:25:28.022Z,20.19
2022-10-29T01:38:38.215Z,20.15
2022-10-29T01:45:33.604Z,20.13
2022-10-29T01:52:06.413Z,20.11
2022-10-29T01:58:37.936Z,20.10
2022-10-29T02:05:37.074Z,20.08
2022-10-29T02:19:01.884Z,20.05
2022-10-29T02:25:49.677Z,20.03
2022-10-29T02:32:11.171Z,20.02
2022-10-29T02:52:38.824Z,19.95
2022-10-29T02:59:05.353Z,19.94
2022-10-29T03:05:07.950Z,19.92
2022-10-29T03:11:33.691Z,19.90
2022-10-29T03:17:42.894Z,19.89
2022-10-29T03:24:16.198Z,19.87
2022-10-29T03:30:58.619Z,19.86
2022-10-29T03:37:40.124Z,19.84
2022-10-29T03:44:15.722Z,19.83
2022-10-29T03:50:58.342Z,19.80
2022-10-29T03:57:25.557Z,19.79
2022-10-29T04:03:49.387Z,19.78
2022-10-29T04:10:35.289Z,19.76
2022-10-29T04:30:23.893Z,19.72
2022-10-29T04:36:41.992Z,19.70
2022-10-29T04:43:40.311Z,19.68
2022-10-29T04:50:01.060Z,19.66
2022-10-29T04:56:20.294Z,19.65
2022-10-29T05:02:45.793Z,19.63
2022-10-29T05:08:49.986Z,19.63
2022-10-29T05:15:23.350Z,19.62
2022-10-29T05:21:32.761Z,19.61
2022-10-29T05:27:40.076Z,19.59
2022-10-29T05:34:10.276Z,19.58
2022-10-29T05:53:42.836Z,19.78
2022-10-29T06:00:10.110Z,20.00
2022-10-29T06:06:27.112Z,20.29
2022-10-29T06:12:52.595Z,20.51
2022-10-29T06:19:24.450Z,20.69
2022-10-29T06:32:08.174Z,21.03
2022-10-29T06:38:26.164Z,21.21
2022-10-29T06:44:53.152Z,21.31
2022-10-29T06:51:38.526Z,21.38
2022-10-29T06:58:04.995Z,21.43
2022-10-29T07:04:00.294Z,21.44
2022-10-29T07:10:18.381Z,21.43
2022-10-29T07:16:42.731Z,21.39
2022-10-29T07:22:37.968Z,21.37
2022-10-29T07:29:22.917Z,21.35
2022-10-29T07:35:47.475Z,21.31
2022-10-29T07:42:12.069Z,21.29
2022-10-29T07:48:52.055Z,21.26
2022-10-29T07:55:09.102Z,21.24
2022-10-29T08:01:33.997Z,21.21
2022-10-29T08:07:53.768Z,21.18
2022-10-29T08:14:22.599Z,21.15
2022-10-29T08:20:21.740Z,21.12
2022-10-29T08:26:46.444Z,21.09
2022-10-29T08:33:11.844Z,21.07
2022-10-29T08:39:40.434Z,21.05
2022-10-29T08:46:05.933Z,21.03
2022-10-29T08:52:33.243Z,21.01
2022-10-29T08:59:00.654Z,20.97
2022-10-29T09:05:27.899Z,20.95
2022-10-29T09:12:14.331Z,20.94
2022-10-29T09:18:40.116Z,20.94
2022-10-29T09:25:07.498Z,20.92
2022-10-29T09:31:34.286Z,20.91
2022-10-29T09:37:58.934Z,20.89
2022-10-29T09:44:24.627Z,20.87
2022-10-29T09:50:51.950Z,20.85
2022-10-29T09:57:16.284Z,20.84
2022-10-29T10:03:43.515Z,20.82
2022-10-29T10:10:08.404Z,20.81
2022-10-29T10:16:32.835Z,20.79
2022-10-29T10:22:49.887Z,20.77
2022-10-29T10:29:23.475Z,20.76
2022-10-29T10:35:59.601Z,20.75
2022-10-29T10:42:18.701Z,20.73
2022-10-29T10:48:43.884Z,20.73
2022-10-29T10:55:51.095Z,20.76
2022-10-29T11:02:15.659Z,20.69
2022-10-29T11:08:45.808Z,20.59
2022-10-29T11:15:10.467Z,20.50
2022-10-29T11:22:01.462Z,20.42
2022-10-29T11:35:42.581Z,20.33
2022-10-29T11:42:36.482Z,20.34
2022-10-29T11:49:01.921Z,20.45
2022-10-29T11:55:30.271Z,20.59
2022-10-29T12:02:12.244Z,20.63
2022-10-29T12:08:43.776Z,20.59
2022-10-29T12:28:44.487Z,20.55
2022-10-29T12:35:27.830Z,20.68
2022-10-29T12:42:07.850Z,20.79
2022-10-29T12:48:48.572Z,20.86
2022-10-29T12:55:28.362Z,20.90
2022-10-29T13:02:12.441Z,20.89
2022-10-29T13:09:09.714Z,20.86
2022-10-29T13:15:29.044Z,20.84
2022-10-29T13:21:53.316Z,20.81
2022-10-29T13:28:17.702Z,20.79
2022-10-29T13:34:42.034Z,20.76
2022-10-29T13:41:36.199Z,20.72
2022-10-29T13:48:00.435Z,20.67
2022-10-29T13:54:24.751Z,20.62
2022-10-29T14:00:57.860Z,20.59
2022-10-29T14:07:22.048Z,20.55
2022-10-29T14:14:04.752Z,20.49
2022-10-29T14:20:29.015Z,20.45
2022-10-29T14:26:53.388Z,20.40
2022-10-29T14:33:17.650Z,20.35
2022-10-29T14:39:58.072Z,20.30
2022-10-29T14:46:26.015Z,20.25
2022-10-29T14:53:02.203Z,20.21
2022-10-29T14:59:29.744Z,20.17
2022-10-29T15:06:02.781Z,20.12
2022-10-29T15:12:38.833Z,20.08
2022-10-29T15:19:03.225Z,20.04
2022-10-29T15:25:27.442Z,20.00
2022-10-29T15:32:11.737Z,19.96
2022-10-29T15:38:48.136Z,19.93
2022-10-29T15:45:49.643Z,19.90
2022-10-29T15:52:31.519Z,19.86
2022-10-29T15:59:16.083Z,19.83
2022-10-29T16:05:40.336Z,19.80
2022-10-29T16:12:04.725Z,19.77
2022-10-29T16:18:29.048Z,19.75
2022-10-29T16:25:11.098Z,19.72
2022-10-29T16:31:35.700Z,19.70
2022-10-29T16:37:59.979Z,19.68
2022-10-29T16:44:17.030Z,19.66
2022-10-29T16:51:07.719Z,19.63
2022-10-29T16:57:31.682Z,19.61
2022-10-29T17:03:55.960Z,19.59
2022-10-29T17:10:20.832Z,19.57
2022-10-29T17:16:45.020Z,19.54
2022-10-29T17:23:26.720Z,19.53
2022-10-29T17:29:51.067Z,19.50
2022-10-29T17:36:15.779Z,19.50
2022-10-29T17:42:40.139Z,19.47
2022-10-29T17:49:04.579Z,19.47
2022-10-29T17:55:46.726Z,19.44
2022-10-29T18:02:11.153Z,19.42
2022-10-29T18:08:53.056Z,19.40
2022-10-29T18:15:17.351Z,19.38
2022-10-29T18:21:41.602Z,19.36
2022-10-29T18:28:23.212Z,19.34
2022-10-29T18:35:05.232Z,19.32
2022-10-29T18:41:35.076Z,19.31
2022-10-29T18:47:59.936Z,19.30
2022-10-29T18:54:24.860Z,19.28
2022-10-29T19:00:49.358Z,19.27
2022-10-29T19:07:13.624Z,19.25
2022-10-29T19:13:37.919Z,19.24
2022-10-29T19:20:19.931Z,19.22
2022-10-29T19:26:44.171Z,19.20
2022-10-29T19:33:08.786Z,19.18
2022-10-29T19:39:34.066Z,19.17
2022-10-29T19:46:16.063Z,19.17
2022-10-29T19:52:40.588Z,19.15
2022-10-29T19:59:05.145Z,19.14
2022-10-29T20:05:22.204Z,19.12
2022-10-29T20:11:46.658Z,19.11
2022-10-29T20:18:11.056Z,19.09
2022-10-29T20:24:35.395Z,19.08
2022-10-29T20:31:17.519Z,19.06
2022-10-29T20:37:59.733Z,19.05
2022-10-29T20:44:42.058Z,19.04
2022-10-29T20:51:06.602Z,19.03
2022-10-29T20:57:30.887Z,19.02
2022-10-29T21:03:55.172Z,19.00
2022-10-29T21:10:19.486Z,18.98
2022-10-29T21:16:46.328Z,18.97
2022-10-29T21:23:10.642Z,18.96
2022-10-29T21:29:34.566Z,18.94
2022-10-29T21:35:58.869Z,18.92
2022-10-29T21:42:23.196Z,18.91
2022-10-29T21:48:47.430Z,18.89
2022-10-29T21:55:29.136Z,18.89
2022-10-29T22:01:53.433Z,18.88
2022-10-29T22:08:17.860Z,18.87
2022-10-29T22:14:41.949Z,18.85
2022-10-29T22:21:06.555Z,18.84
2022-10-29T22:27:30.981Z,18.83
2022-10-29T22:34:12.563Z,18.81
2022-10-29T22:40:36.773Z,18.80
2022-10-29T22:47:01.030Z,18.78
2022-10-29T22:53:42.976Z,18.77
2022-10-29T23:00:07.204Z,18.76
2022-10-29T23:06:37.310Z,18.75
2022-10-29T23:13:19.227Z,18.74
2022-10-29T23:19:43.146Z,18.73
2022-10-29T23:26:08.078Z,18.72
2022-10-29T23:32:32.375Z,18.71
2022-10-29T23:38:56.590Z,18.70
2022-10-29T23:45:20.887Z,18.68
2022-10-29T23:51:45.229Z,18.67
2022-10-29T23:58:09.664Z,18.65
